Time;durP1;ratioP1;P1;durP2;ratioP2;P2;SDS_P1;SDS_P2;PMS_P1;PMS_P2;Temp;Humidity;BMP_temperature;BMP_pressure;BME280_temperature;BME280_humidity;BME280_pressure;Samples;Min_cycle;Max_cycle;Signal;HPM_P1;HPM_P2
2022/03/25 00:00:50;;;;;;;1.50;1.20;;;8.30;87.20;;;;;;5069635;28;20462;-72
2022/03/25 00:03:17;;;;;;;1.50;1.20;;;8.30;86.90;;;;;;5062968;28;20481;-72
2022/03/25 00:05:44;;;;;;;1.50;1.30;;;8.30;86.90;;;;;;5064748;28;21004;-73
2022/03/25 00:08:10;;;;;;;1.50;1.30;;;8.20;88.00;;;;;;5067755;28;20845;-72
2022/03/25 00:10:39;;;;;;;1.50;1.30;;;8.20;87.40;;;;;;5060201;28;20497;-73
2022/03/25 00:13:06;;;;;;;1.50;1.20;;;8.20;86.80;;;;;;5067279;28;20488;-72
2022/03/25 00:15:32;;;;;;;1.40;1.20;;;8.10;86.50;;;;;;5070000;28;20465;-72
2022/03/25 00:17:59;;;;;;;1.50;1.20;;;8.10;88.10;;;;;;5069262;28;20458;-72
2022/03/25 00:20:26;;;;;;;1.50;1.30;;;8.00;87.50;;;;;;5069916;28;20478;-72
2022/03/25 00:22:53;;;;;;;1.50;1.20;;;8.00;87.90;;;;;;5068009;28;20474;-72
2022/03/25 00:25:20;;;;;;;1.50;1.20;;;8.00;88.00;;;;;;5063099;28;20458;-73
2022/03/25 00:27:48;;;;;;;1.50;1.20;;;8.00;88.10;;;;;;5070225;28;20461;-72
2022/03/25 00:30:15;;;;;;;1.50;1.30;;;7.90;88.70;;;;;;5069233;28;20481;-73
2022/03/25 00:32:42;;;;;;;1.60;1.50;;;7.90;87.10;;;;;;5056943;28;20503;-73
2022/03/25 00:35:10;;;;;;;1.50;1.20;;;7.90;88.30;;;;;;5069618;28;20465;-73
2022/03/25 00:37:37;;;;;;;1.50;1.30;;;7.80;88.30;;;;;;5069463;28;20491;-73
2022/03/25 00:40:05;;;;;;;1.50;1.20;;;7.80;88.50;;;;;;5069548;28;20466;-72
2022/03/25 00:42:33;;;;;;;1.50;1.40;;;7.80;89.40;;;;;;5065555;28;20591;-73
2022/03/25 00:45:02;;;;;;;1.50;1.30;;;7.80;88.60;;;;;;5069566;28;20542;-73
2022/03/25 00:47:28;;;;;;;1.50;1.27;;;7.70;88.90;;;;;;5069422;28;20773;-73
2022/03/25 00:49:55;;;;;;;1.90;1.70;;;7.70;88.80;;;;;;5069565;28;20497;-73
2022/03/25 00:52:22;;;;;;;1.50;1.30;;;7.70;89.20;;;;;;5066089;28;20524;-73
2022/03/25 00:54:50;;;;;;;1.50;1.20;;;7.70;89.60;;;;;;5055670;28;20499;-73
2022/03/25 00:57:17;;;;;;;1.50;1.20;;;7.60;89.60;;;;;;5068644;28;20465;-73
2022/03/25 00:59:43;;;;;;;1.50;1.30;;;7.60;89.00;;;;;;5069083;28;20462;-73
2022/03/25 01:02:11;;;;;;;1.50;1.20;;;7.60;90.30;;;;;;5045885;28;20859;-73
2022/03/25 01:04:38;;;;;;;1.50;1.30;;;7.60;89.90;;;;;;5048874;28;20942;-73
2022/03/25 01:07:05;;;;;;;1.50;1.30;;;7.50;88.90;;;;;;5049120;28;20462;-73
2022/03/25 01:09:32;;;;;;;1.50;1.20;;;7.50;89.00;;;;;;5049397;28;20473;-73
2022/03/25 01:11:59;;;;;;;1.50;1.20;;;7.50;89.40;;;;;;5047733;28;20450;-73
2022/03/25 01:14:27;;;;;;;1.50;1.30;;;7.40;89.10;;;;;;5042861;28;20575;-73
2022/03/25 01:16:53;;;;;;;1.50;1.20;;;7.40;90.00;;;;;;5039578;28;20456;-72
2022/03/25 01:19:22;;;;;;;1.50;1.30;;;7.40;89.80;;;;;;5049340;28;20824;-73
2022/03/25 01:21:49;;;;;;;1.50;1.30;;;7.30;89.60;;;;;;5046817;28;20890;-73
2022/03/25 01:24:16;;;;;;;1.50;1.20;;;7.30;88.90;;;;;;5035535;28;20762;-73
2022/03/25 01:26:43;;;;;;;1.53;1.43;;;7.30;90.90;;;;;;5044929;28;20494;-72
2022/03/25 01:29:10;;;;;;;1.50;1.30;;;7.30;90.00;;;;;;5049437;28;20493;-73
2022/03/25 01:31:36;;;;;;;1.50;1.20;;;7.20;89.80;;;;;;5048161;28;20489;-73
2022/03/25 01:34:04;;;;;;;1.50;1.30;;;7.20;89.40;;;;;;5047065;28;20838;-72
2022/03/25 01:36:32;;;;;;;1.50;1.20;;;7.20;90.30;;;;;;5048941;28;20466;-73
2022/03/25 01:38:59;;;;;;;1.50;1.20;;;7.10;89.70;;;;;;5049361;28;20466;-73
2022/03/25 01:41:26;;;;;;;1.47;1.20;;;7.10;91.20;;;;;;5048523;28;21006;-73
2022/03/25 01:43:54;;;;;;;1.50;1.20;;;7.10;91.20;;;;;;5048357;28;20490;-73
2022/03/25 01:46:22;;;;;;;1.50;1.40;;;7.00;91.20;;;;;;5048234;28;20469;-73
2022/03/25 01:48:48;;;;;;;1.50;1.20;;;7.00;91.10;;;;;;5049556;28;20466;-73
2022/03/25 01:51:17;;;;;;;1.50;1.20;;;7.00;91.20;;;;;;5033412;28;20879;-73
2022/03/25 01:53:47;;;;;;;1.50;1.20;;;6.90;91.30;;;;;;5034167;28;20493;-73
2022/03/25 01:56:22;;;;;;;1.50;1.20;;;6.90;91.40;;;;;;5044950;28;20458;-73
2022/03/25 01:58:50;;;;;;;1.50;1.30;;;6.90;92.30;;;;;;5046819;28;20472;-73
2022/03/25 02:01:17;;;;;;;1.50;1.30;;;6.80;91.50;;;;;;5048028;28;20481;-73
2022/03/25 02:03:45;;;;;;;1.50;1.33;;;6.80;92.30;;;;;;5048671;28;20483;-73
2022/03/25 02:06:12;;;;;;;1.50;1.30;;;6.80;92.00;;;;;;5045714;28;20486;-73
2022/03/25 02:08:39;;;;;;;1.50;1.30;;;6.70;90.80;;;;;;5046883;28;20958;-73
2022/03/25 02:11:09;;;;;;;1.50;1.20;;;6.70;92.50;;;;;;5047949;28;20493;-73
2022/03/25 02:13:35;;;;;;;1.50;1.30;;;6.70;93.60;;;;;;5041080;28;21001;-72
2022/03/25 02:16:02;;;;;;;1.50;1.30;;;6.70;93.30;;;;;;5047139;28;20462;-73
2022/03/25 02:18:29;;;;;;;1.50;1.30;;;6.60;92.30;;;;;;5049161;28;20466;-73
2022/03/25 02:20:56;;;;;;;1.50;1.30;;;6.60;93.80;;;;;;5052652;28;20462;-74
2022/03/25 02:23:24;;;;;;;1.50;1.30;;;6.60;92.80;;;;;;5046783;28;20481;-73
2022/03/25 02:25:52;;;;;;;1.50;1.30;;;6.50;91.70;;;;;;5045952;28;20477;-73
2022/03/25 02:28:19;;;;;;;1.50;1.30;;;6.50;93.20;;;;;;5050080;28;20466;-72
2022/03/25 02:30:46;;;;;;;1.50;1.20;;;6.50;93.70;;;;;;5047741;28;20993;-73
2022/03/25 02:33:14;;;;;;;1.83;1.73;;;6.50;93.20;;;;;;5038324;28;20478;-73
2022/03/25 02:35:42;;;;;;;1.50;1.30;;;6.40;92.10;;;;;;5051663;28;20465;-74
2022/03/25 02:38:10;;;;;;;1.50;1.30;;;6.40;93.60;;;;;;5051091;28;20469;-73
2022/03/25 02:40:38;;;;;;;1.50;1.20;;;6.40;93.20;;;;;;5042490;28;20490;-73
2022/03/25 02:43:06;;;;;;;1.50;1.30;;;6.40;94.80;;;;;;5046455;28;20486;-73
2022/03/25 02:45:33;;;;;;;1.50;1.27;;;6.30;94.70;;;;;;5051566;28;20457;-72
2022/03/25 02:48:02;;;;;;;1.50;1.30;;;6.30;94.00;;;;;;5045602;28;20972;-72
2022/03/25 02:50:30;;;;;;;1.50;1.30;;;6.30;94.50;;;;;;5050892;28;20553;-73
2022/03/25 02:52:57;;;;;;;1.50;1.20;;;6.30;94.90;;;;;;5046116;28;20492;-73
2022/03/25 02:55:24;;;;;;;1.50;1.30;;;6.30;96.00;;;;;;5050881;28;20462;-73
2022/03/25 02:57:53;;;;;;;1.67;1.57;;;6.30;96.00;;;;;;5047141;28;20470;-73
2022/03/25 03:00:21;;;;;;;1.50;1.30;;;6.20;94.80;;;;;;5051730;28;20520;-73
2022/03/25 03:02:48;;;;;;;1.50;1.30;;;6.20;95.40;;;;;;5047560;28;20474;-73
2022/03/25 03:05:17;;;;;;;1.97;1.80;;;6.20;95.20;;;;;;5051850;28;20500;-73
2022/03/25 03:07:45;;;;;;;1.50;1.30;;;6.20;95.40;;;;;;5048645;28;20466;-72
2022/03/25 03:10:13;;;;;;;2.27;2.07;;;6.10;94.60;;;;;;5051500;28;20481;-73
2022/03/25 03:12:41;;;;;;;1.60;1.50;;;6.10;94.50;;;;;;5048234;28;20536;-73
2022/03/25 03:15:11;;;;;;;1.50;1.30;;;6.10;94.80;;;;;;5051835;28;20472;-73
2022/03/25 03:17:38;;;;;;;1.50;1.23;;;6.00;94.90;;;;;;5052176;28;20497;-73
2022/03/25 03:20:06;;;;;;;1.50;1.30;;;6.00;94.60;;;;;;5051760;28;20470;-73
2022/03/25 03:22:33;;;;;;;1.60;1.50;;;6.00;95.30;;;;;;5047633;28;20485;-73
2022/03/25 03:25:00;;;;;;;1.50;1.30;;;6.00;95.60;;;;;;5050781;28;20467;-73
2022/03/25 03:27:27;;;;;;;1.50;1.30;;;6.00;95.10;;;;;;5047907;28;20894;-73
2022/03/25 03:29:54;;;;;;;1.50;1.20;;;5.90;94.70;;;;;;5050926;28;20458;-72
2022/03/25 03:32:22;;;;;;;1.50;1.40;;;5.90;95.50;;;;;;5044031;28;20489;-73
2022/03/25 03:34:49;;;;;;;1.53;1.30;;;5.90;94.80;;;;;;5050724;28;20466;-73
2022/03/25 03:37:15;;;;;;;1.50;1.30;;;5.80;95.70;;;;;;5044844;28;20458;-72
2022/03/25 03:39:42;;;;;;;1.50;1.30;;;5.80;96.10;;;;;;5051901;28;20463;-72
2022/03/25 03:42:09;;;;;;;1.50;1.30;;;5.80;95.40;;;;;;5045990;28;20462;-72
2022/03/25 03:44:38;;;;;;;1.50;1.30;;;5.80;95.00;;;;;;5051978;28;20494;-72
2022/03/25 03:47:06;;;;;;;1.50;1.30;;;5.70;94.80;;;;;;5047495;28;20463;-72
2022/03/25 03:49:34;;;;;;;1.50;1.30;;;5.70;96.70;;;;;;5048463;28;20496;-72
2022/03/25 03:52:02;;;;;;;1.67;1.57;;;5.70;95.50;;;;;;5043378;28;20498;-72
2022/03/25 03:54:29;;;;;;;1.50;1.30;;;5.70;95.50;;;;;;5049916;28;21053;-72
2022/03/25 03:56:56;;;;;;;1.50;1.30;;;5.70;96.50;;;;;;5042037;28;20463;-73
2022/03/25 03:59:22;;;;;;;1.50;1.30;;;5.60;96.00;;;;;;5050596;28;21136;-73
2022/03/25 04:01:49;;;;;;;1.50;1.40;;;5.60;96.30;;;;;;5048459;28;20463;-72
2022/03/25 04:04:17;;;;;;;1.50;1.30;;;5.60;97.10;;;;;;5049655;28;20672;-72
2022/03/25 04:06:45;;;;;;;1.50;1.30;;;5.60;96.20;;;;;;5049320;28;20466;-72
2022/03/25 04:09:12;;;;;;;1.50;1.40;;;5.60;96.60;;;;;;5050435;28;20473;-72
2022/03/25 04:11:39;;;;;;;1.50;1.30;;;5.50;96.10;;;;;;5038214;28;20489;-72
2022/03/25 04:14:05;;;;;;;1.50;1.23;;;5.50;96.80;;;;;;5048516;28;20486;-72
2022/03/25 04:16:32;;;;;;;1.50;1.30;;;5.50;96.40;;;;;;5045219;28;20477;-72
2022/03/25 04:18:59;;;;;;;1.53;1.30;;;5.50;97.50;;;;;;5054793;28;20463;-72
2022/03/25 04:21:26;;;;;;;1.50;1.40;;;5.50;97.70;;;;;;5047480;28;20462;-73
2022/03/25 04:23:54;;;;;;;1.50;1.40;;;5.50;97.70;;;;;;5049152;28;20978;-72
2022/03/25 04:26:21;;;;;;;1.60;1.50;;;5.40;96.70;;;;;;5049118;28;20466;-72
2022/03/25 04:28:48;;;;;;;1.50;1.30;;;5.40;96.80;;;;;;5049706;28;20473;-72
2022/03/25 04:31:14;;;;;;;1.50;1.40;;;5.40;98.00;;;;;;5049279;28;20509;-72
2022/03/25 04:33:41;;;;;;;1.53;1.40;;;5.40;97.30;;;;;;5050132;28;21053;-73
2022/03/25 04:36:09;;;;;;;1.50;1.30;;;5.30;96.70;;;;;;5049042;28;20466;-72
2022/03/25 04:38:36;;;;;;;1.50;1.30;;;5.30;98.20;;;;;;5048967;28;20903;-72
2022/03/25 04:41:04;;;;;;;1.57;1.40;;;5.30;97.80;;;;;;5040058;28;20472;-72
2022/03/25 04:43:31;;;;;;;1.50;1.30;;;5.30;98.20;;;;;;5046827;28;20574;-72
2022/03/25 04:45:58;;;;;;;1.57;1.40;;;5.30;98.20;;;;;;5048858;28;20477;-72
2022/03/25 04:48:25;;;;;;;1.50;1.20;;;5.20;98.20;;;;;;5045551;28;20570;-73
2022/03/25 04:50:51;;;;;;;1.50;1.33;;;5.20;98.20;;;;;;5043852;28;20466;-73
2022/03/25 04:53:19;;;;;;;1.60;1.40;;;5.20;98.20;;;;;;5048393;28;20486;-73
2022/03/25 04:55:46;;;;;;;1.53;1.30;;;5.20;98.20;;;;;;5044510;28;20600;-72
2022/03/25 04:58:14;;;;;;;1.50;1.40;;;5.20;98.20;;;;;;5048745;28;20947;-73
2022/03/25 05:00:42;;;;;;;1.50;1.30;;;5.20;98.20;;;;;;5048574;28;20469;-72
2022/03/25 05:03:09;;;;;;;1.50;1.30;;;5.20;98.20;;;;;;5052748;28;20475;-72
2022/03/25 05:05:37;;;;;;;1.60;1.30;;;5.20;98.20;;;;;;5048802;28;20462;-72
2022/03/25 05:08:04;;;;;;;1.50;1.30;;;5.20;98.20;;;;;;5048309;28;20466;-72
2022/03/25 05:10:31;;;;;;;1.50;1.30;;;5.20;98.20;;;;;;5048698;28;20863;-72
2022/03/25 05:12:58;;;;;;;1.50;1.30;;;5.20;98.20;;;;;;5050894;28;20490;-72
2022/03/25 05:15:26;;;;;;;1.50;1.40;;;5.20;98.20;;;;;;5049512;28;20466;-72
2022/03/25 05:17:53;;;;;;;1.50;1.30;;;5.20;98.20;;;;;;5048626;28;20469;-72
2022/03/25 05:20:21;;;;;;;1.53;1.43;;;5.10;97.40;;;;;;5047622;28;20473;-73
2022/03/25 05:22:49;;;;;;;1.50;1.40;;;5.10;98.20;;;;;;5047409;28;20483;-73
2022/03/25 05:25:17;;;;;;;1.60;1.40;;;5.10;97.70;;;;;;5042223;28;20455;-72
2022/03/25 05:27:48;;;;;;;1.50;1.30;;;5.10;97.40;;;;;;5047648;28;20549;-72
2022/03/25 05:30:15;;;;;;;1.50;1.40;;;5.10;98.20;;;;;;5040532;28;20466;-72
2022/03/25 05:32:43;;;;;;;1.53;1.40;;;5.10;98.10;;;;;;5046944;28;20948;-73
2022/03/25 05:35:11;;;;;;;1.60;1.50;;;5.10;98.20;;;;;;5041060;28;20972;-71
2022/03/25 05:37:39;;;;;;;1.50;1.30;;;5.10;98.20;;;;;;5041817;28;20692;-73
2022/03/25 05:40:07;;;;;;;1.50;1.40;;;5.10;97.70;;;;;;5040633;28;20462;-71
2022/03/25 05:42:34;;;;;;;1.50;1.30;;;5.10;97.80;;;;;;5045421;28;20478;-71
2022/03/25 05:45:04;;;;;;;1.53;1.30;;;5.00;98.20;;;;;;5048590;28;20458;-76
2022/03/25 05:47:31;;;;;;;1.53;1.40;;;5.00;98.20;;;;;;5049017;28;20811;-74
2022/03/25 05:50:00;;;;;;;1.57;1.30;;;5.10;98.20;;;;;;5050762;28;20612;-74
2022/03/25 05:52:27;;;;;;;1.50;1.30;;;5.10;98.20;;;;;;5050482;28;20493;-73
2022/03/25 05:54:54;;;;;;;1.50;1.30;;;5.10;98.20;;;;;;5052328;28;20660;-73
2022/03/25 05:57:21;;;;;;;1.50;1.40;;;5.10;98.10;;;;;;5053992;28;20848;-77
2022/03/25 05:59:48;;;;;;;1.53;1.37;;;5.10;98.20;;;;;;5056313;28;20457;-77
2022/03/25 06:02:15;;;;;;;1.50;1.30;;;5.10;98.20;;;;;;5053941;28;20478;-75
2022/03/25 06:04:42;;;;;;;1.50;1.30;;;5.10;98.20;;;;;;5053174;28;20626;-74
2022/03/25 06:07:12;;;;;;;2.37;2.17;;;5.20;98.20;;;;;;5044995;28;20870;-74
2022/03/25 06:09:39;;;;;;;1.50;1.40;;;5.20;98.20;;;;;;5040849;28;20517;-72
2022/03/25 06:12:07;;;;;;;1.50;1.30;;;5.20;98.20;;;;;;5043630;28;20482;-73
2022/03/25 06:14:34;;;;;;;1.50;1.30;;;5.30;98.20;;;;;;5046363;28;20489;-73
2022/03/25 06:17:01;;;;;;;1.50;1.40;;;5.30;98.20;;;;;;5047083;28;20475;-74
2022/03/25 06:19:28;;;;;;;1.50;1.30;;;5.40;98.20;;;;;;5047865;28;20978;-73
2022/03/25 06:21:55;;;;;;;1.50;1.30;;;5.50;98.20;;;;;;5046817;28;20858;-72
2022/03/25 06:24:24;;;;;;;1.50;1.30;;;5.60;98.20;;;;;;5045375;28;20474;-75
2022/03/25 06:26:50;;;;;;;1.50;1.30;;;5.70;98.20;;;;;;5043413;28;20477;-74
2022/03/25 06:29:17;;;;;;;1.50;1.40;;;5.90;98.20;;;;;;5048040;28;20498;-74
2022/03/25 06:31:44;;;;;;;1.50;1.30;;;6.00;98.20;;;;;;5046477;28;20555;-71
2022/03/25 06:34:11;;;;;;;1.50;1.30;;;6.20;98.20;;;;;;5047739;28;20490;-71
2022/03/25 06:36:37;;;;;;;1.50;1.30;;;6.40;98.20;;;;;;5049029;28;20466;-73
2022/03/25 06:39:04;;;;;;;1.50;1.30;;;6.50;98.20;;;;;;5048027;28;20944;-74
2022/03/25 06:41:32;;;;;;;1.50;1.20;;;6.50;98.20;;;;;;5047280;28;20493;-75
2022/03/25 06:44:01;;;;;;;1.50;1.30;;;6.70;98.20;;;;;;5047089;28;20560;-74
2022/03/25 06:46:27;;;;;;;1.53;1.30;;;6.90;98.20;;;;;;5046388;28;20466;-75
2022/03/25 06:48:55;;;;;;;1.50;1.20;;;7.10;98.20;;;;;;5046145;28;20462;-74
2022/03/25 06:51:22;;;;;;;1.50;1.30;;;7.30;98.20;;;;;;5046630;28;20462;-74
2022/03/25 06:53:49;;;;;;;1.50;1.30;;;7.60;98.20;;;;;;5043716;28;21185;-71
2022/03/25 06:56:17;;;;;;;1.50;1.20;;;7.70;97.20;;;;;;5038636;28;20493;-75
2022/03/25 06:58:45;;;;;;;1.50;1.20;;;7.90;96.80;;;;;;5047204;28;20462;-74
2022/03/25 07:01:14;;;;;;;1.50;1.20;;;8.10;96.90;;;;;;5045954;28;21155;-72
2022/03/25 07:03:41;;;;;;;1.50;1.20;;;8.30;95.60;;;;;;5045570;28;21056;-75
2022/03/25 07:06:10;;;;;;;2.63;2.43;;;8.40;95.60;;;;;;5046760;28;21034;-74
2022/03/25 07:08:39;;;;;;;1.50;1.20;;;8.60;95.30;;;;;;5046749;28;20469;-73
2022/03/25 07:11:06;;;;;;;1.50;1.20;;;8.80;94.30;;;;;;5046131;28;20458;-74
2022/03/25 07:13:33;;;;;;;1.83;1.73;;;9.00;94.10;;;;;;5046017;28;20494;-73
2022/03/25 07:16:03;;;;;;;1.50;1.10;;;9.10;93.00;;;;;;5045999;28;20469;-74
2022/03/25 07:18:29;;;;;;;1.50;1.20;;;9.30;92.60;;;;;;5042088;28;20498;-74
2022/03/25 07:20:59;;;;;;;1.50;1.20;;;9.50;92.50;;;;;;5046470;28;20836;-72
2022/03/25 07:23:26;;;;;;;1.47;1.10;;;9.60;91.20;;;;;;5046732;28;20482;-74
2022/03/25 07:25:53;;;;;;;1.50;1.10;;;9.80;91.20;;;;;;5044621;28;20472;-74
2022/03/25 07:28:20;;;;;;;1.50;1.20;;;9.90;91.10;;;;;;5045065;28;20470;-74
2022/03/25 07:30:46;;;;;;;1.50;1.10;;;10.10;91.10;;;;;;5046301;28;20463;-74
2022/03/25 07:33:14;;;;;;;1.57;1.37;;;10.30;89.60;;;;;;5045880;28;20498;-73
2022/03/25 07:35:41;;;;;;;1.50;1.30;;;10.50;89.60;;;;;;5047026;28;20467;-74
2022/03/25 07:38:09;;;;;;;1.50;1.10;;;10.70;88.90;;;;;;5039890;28;20474;-74
2022/03/25 07:40:36;;;;;;;1.50;1.10;;;10.80;88.70;;;;;;5045336;28;20964;-74
2022/03/25 07:43:03;;;;;;;1.50;1.10;;;11.00;89.10;;;;;;5046025;28;20998;-74
2022/03/25 07:45:30;;;;;;;1.47;1.00;;;11.30;88.00;;;;;;5045542;28;20462;-73
2022/03/25 07:47:56;;;;;;;1.50;1.30;;;11.40;86.90;;;;;;5045371;28;20886;-75
2022/03/25 07:50:25;;;;;;;1.50;1.10;;;11.50;87.00;;;;;;5044653;28;20905;-74
2022/03/25 07:52:52;;;;;;;1.50;1.10;;;11.60;86.20;;;;;;5045045;28;20489;-73
2022/03/25 07:55:20;;;;;;;1.50;1.10;;;11.80;86.20;;;;;;5042019;28;20472;-73
2022/03/25 07:57:48;;;;;;;1.60;1.33;;;12.00;85.90;;;;;;5045856;28;20466;-74
2022/03/25 08:00:16;;;;;;;1.50;1.00;;;12.10;85.70;;;;;;5046087;28;20466;-74
2022/03/25 08:02:46;;;;;;;1.50;1.10;;;12.30;85.00;;;;;;5045177;28;20492;-74
2022/03/25 08:05:13;;;;;;;1.50;1.20;;;12.40;83.70;;;;;;5046197;28;20919;-74
2022/03/25 08:07:48;;;;;;;1.50;1.10;;;12.60;83.80;;;;;;5045711;28;20871;-74
2022/03/25 08:10:17;;;;;;;1.47;1.00;;;12.70;83.60;;;;;;5046235;28;20491;-74
2022/03/25 08:12:44;;;;;;;1.50;1.03;;;12.90;83.10;;;;;;5045247;28;20494;-73
2022/03/25 08:15:11;;;;;;;1.50;1.10;;;13.00;83.40;;;;;;5047214;28;20564;-74
2022/03/25 08:17:49;;;;;;;1.50;1.00;;;13.10;82.50;;;;;;5032659;28;20550;-74
2022/03/25 08:20:21;;;;;;;1.47;0.97;;;13.30;82.30;;;;;;5044538;28;20486;-74
2022/03/25 08:22:49;;;;;;;1.50;1.00;;;13.40;79.90;;;;;;5044717;28;20540;-72
2022/03/25 08:28:01;;;;;;;1.50;1.00;;;13.70;78.30;;;;;;5043743;28;20941;-74
2022/03/25 08:30:28;;;;;;;1.50;1.00;;;14.00;79.40;;;;;;5048452;28;20733;-74
2022/03/25 08:32:56;;;;;;;1.50;1.00;;;14.10;78.90;;;;;;5049869;28;20488;-74
2022/03/25 08:35:24;;;;;;;1.50;1.00;;;14.20;79.20;;;;;;5045595;28;20913;-74
2022/03/25 08:37:53;;;;;;;1.47;0.90;;;14.40;78.30;;;;;;5044512;28;20911;-74
2022/03/25 08:40:20;;;;;;;1.50;1.00;;;14.50;78.10;;;;;;5044884;28;20556;-72
2022/03/25 08:42:47;;;;;;;1.50;1.00;;;14.70;77.70;;;;;;5043395;28;20489;-74
2022/03/25 08:45:15;;;;;;;1.50;1.00;;;14.70;76.70;;;;;;5045590;28;20543;-74
2022/03/25 08:47:42;;;;;;;1.50;0.97;;;14.80;76.10;;;;;;5045488;28;20826;-74
2022/03/25 08:50:12;;;;;;;1.50;1.20;;;15.00;75.80;;;;;;5045597;28;20466;-73
2022/03/25 08:52:39;;;;;;;1.50;0.90;;;15.10;76.40;;;;;;5044310;28;20486;-74
2022/03/25 08:55:09;;;;;;;1.50;0.97;;;15.40;76.10;;;;;;5044719;28;20473;-74
2022/03/25 08:57:36;;;;;;;1.43;0.90;;;15.50;76.90;;;;;;5044568;28;20524;-73
2022/03/25 09:00:05;;;;;;;1.50;1.00;;;15.70;76.90;;;;;;5044071;28;20477;-74
2022/03/25 09:02:31;;;;;;;1.50;1.00;;;15.90;76.30;;;;;;5044010;28;20713;-73
2022/03/25 09:04:58;;;;;;;1.50;0.90;;;16.10;75.70;;;;;;5044761;28;20466;-73
2022/03/25 09:07:25;;;;;;;1.50;1.00;;;16.20;74.70;;;;;;5044395;28;20471;-73
2022/03/25 09:09:52;;;;;;;1.50;0.90;;;16.40;74.50;;;;;;5044877;28;20900;-74
2022/03/25 09:12:20;;;;;;;1.47;0.90;;;16.60;74.60;;;;;;5044589;28;20486;-74
2022/03/25 09:14:47;;;;;;;1.50;0.90;;;16.80;74.10;;;;;;5045313;28;20462;-74
2022/03/25 09:17:14;;;;;;;1.50;1.00;;;16.90;73.00;;;;;;5044852;28;20868;-74
2022/03/25 09:19:41;;;;;;;1.47;0.90;;;17.00;73.30;;;;;;5044319;28;20462;-73
2022/03/25 09:22:08;;;;;;;1.47;0.90;;;17.20;73.20;;;;;;5044180;28;20524;-74
2022/03/25 09:24:35;;;;;;;1.47;0.90;;;17.40;73.40;;;;;;5045356;28;20830;-73
2022/03/25 09:27:02;;;;;;;1.50;0.90;;;17.60;73.80;;;;;;5044935;28;20463;-73
2022/03/25 09:29:30;;;;;;;1.93;1.73;;;17.80;71.80;;;;;;5047063;28;20838;-74
2022/03/25 09:31:57;;;;;;;3.60;3.40;;;18.00;72.10;;;;;;5041833;28;21000;-74
2022/03/25 09:37:07;;;;;;;1.50;1.00;;;18.30;71.40;;;;;;5043378;28;20469;-74
2022/03/25 09:39:34;;;;;;;1.50;1.10;;;18.40;71.50;;;;;;5043891;28;20463;-74
2022/03/25 09:42:04;;;;;;;1.43;0.90;;;18.40;71.10;;;;;;5042738;28;20462;-73
2022/03/25 09:44:33;;;;;;;1.57;1.10;;;18.60;70.10;;;;;;5041293;28;20467;-72
2022/03/25 09:47:01;;;;;;;1.50;0.90;;;18.70;69.70;;;;;;5040239;28;20462;-73
2022/03/25 09:49:28;;;;;;;1.50;1.00;;;18.90;69.50;;;;;;5043128;28;20467;-73
2022/03/25 09:51:55;;;;;;;1.47;1.00;;;19.10;68.80;;;;;;5042203;28;20473;-71
2022/03/25 09:54:22;;;;;;;1.47;0.90;;;19.20;68.80;;;;;;5043061;28;20866;-72
2022/03/25 09:56:49;;;;;;;1.50;1.00;;;19.40;67.80;;;;;;5036587;28;20848;-72
2022/03/25 09:59:18;;;;;;;1.97;1.33;;;19.50;68.20;;;;;;5042935;28;20620;-73
2022/03/25 10:01:47;;;;;;;1.50;1.10;;;19.70;68.10;;;;;;5042716;28;21274;-73
2022/03/25 10:04:36;;;;;;;2.13;1.93;;;20.00;66.20;;;;;;5044706;28;20484;-73
2022/03/25 10:07:15;;;;;;;1.50;0.90;;;20.10;65.80;;;;;;5039482;28;20489;-73
2022/03/25 10:09:42;;;;;;;1.50;0.90;;;20.30;65.50;;;;;;5046296;28;20548;-72
2022/03/25 10:12:20;;;;;;;1.50;1.00;;;20.50;64.50;;;;;;5035235;28;20465;-74
2022/03/25 10:14:49;;;;;;;1.50;0.90;;;20.50;63.20;;;;;;5043501;28;20478;-73
2022/03/25 10:17:17;;;;;;;1.70;1.30;;;20.40;63.40;;;;;;5043964;28;20466;-71
2022/03/25 10:19:49;;;;;;;1.50;1.10;;;20.10;62.40;;;;;;5042053;28;20527;-73
2022/03/25 10:22:17;;;;;;;1.43;0.90;;;20.20;62.20;;;;;;5041952;28;20486;-72
2022/03/25 10:24:45;;;;;;;1.50;1.00;;;20.20;60.90;;;;;;5042970;28;20458;-73
2022/03/25 10:27:12;;;;;;;1.47;0.90;;;20.10;60.10;;;;;;5040833;28;20472;-73
2022/03/25 10:29:39;;;;;;;1.47;0.90;;;19.60;59.90;;;;;;5042107;28;21064;-73
2022/03/25 10:32:08;;;;;;;1.47;0.90;;;19.60;61.00;;;;;;5041773;28;20845;-73
2022/03/25 10:34:37;;;;;;;1.83;1.57;;;19.60;59.50;;;;;;5037079;28;20875;-71
2022/03/25 10:37:05;;;;;;;1.50;0.90;;;19.70;60.40;;;;;;5036867;28;20474;-72
2022/03/25 10:39:33;;;;;;;1.47;0.90;;;19.80;60.50;;;;;;5046600;28;20466;-75
2022/03/25 10:42:01;;;;;;;1.47;0.90;;;20.00;59.50;;;;;;5047882;28;20488;-77
2022/03/25 10:44:37;;;;;;;2.30;1.60;;;20.20;59.90;;;;;;5048492;28;20463;-73
2022/03/25 10:47:24;;;;;;;2.13;1.80;;;20.30;59.10;;;;;;5049421;28;21347;-74
2022/03/25 10:49:53;;;;;;;1.70;1.47;;;20.40;58.80;;;;;;5048202;28;20473;-73
2022/03/25 10:52:25;;;;;;;1.50;1.00;;;20.40;58.70;;;;;;5047629;28;21011;-73
2022/03/25 10:55:12;;;;;;;5.03;1.83;;;20.50;57.70;;;;;;5045078;28;20573;-77
2022/03/25 10:57:51;;;;;;;1.50;1.00;;;20.60;58.50;;;;;;5046191;28;20896;-78
2022/03/25 11:00:18;;;;;;;3.50;1.87;;;20.60;57.30;;;;;;5048810;28;20462;-73
2022/03/25 11:02:45;;;;;;;1.50;1.23;;;20.50;58.50;;;;;;5048946;28;20482;-73
2022/03/25 11:05:14;;;;;;;1.47;0.90;;;20.60;58.10;;;;;;5046531;28;20572;-72
2022/03/25 11:07:43;;;;;;;1.60;1.40;;;20.60;57.30;;;;;;5046554;28;20465;-72
2022/03/25 11:10:12;;;;;;;1.47;0.90;;;20.80;57.90;;;;;;5047863;28;20473;-72
2022/03/25 11:12:42;;;;;;;1.47;0.90;;;20.90;57.30;;;;;;5047278;28;21029;-72
2022/03/25 11:15:12;;;;;;;1.87;1.50;;;20.90;57.30;;;;;;5048179;28;20458;-72
2022/03/25 11:17:41;;;;;;;1.50;1.00;;;21.00;56.90;;;;;;5046819;28;20561;-71
2022/03/25 11:20:10;;;;;;;1.50;1.00;;;21.10;56.60;;;;;;5047005;28;20494;-73
2022/03/25 11:22:44;;;;;;;3.00;2.33;;;21.20;55.90;;;;;;5046601;28;20486;-71
2022/03/25 11:25:13;;;;;;;3.43;2.50;;;21.30;55.90;;;;;;5041583;28;20469;-71
2022/03/25 11:27:46;;;;;;;1.47;0.90;;;21.50;55.40;;;;;;5050887;28;20566;-72
2022/03/25 11:30:14;;;;;;;1.60;1.10;;;21.30;55.10;;;;;;5050796;28;20461;-71
2022/03/25 11:33:06;;;;;;;1.50;1.13;;;21.30;56.80;;;;;;5041878;28;20484;-71
2022/03/25 11:35:34;;;;;;;1.50;1.10;;;21.30;56.10;;;;;;5044064;28;20502;-72
2022/03/25 11:38:27;;;;;;;7.10;5.03;;;21.30;55.60;;;;;;5047516;28;20535;-71
2022/03/25 11:40:54;;;;;;;2.13;1.83;;;21.40;56.00;;;;;;5024541;28;20475;-71
2022/03/25 11:43:24;;;;;;;1.47;1.07;;;21.30;56.40;;;;;;5043256;28;20894;-71
2022/03/25 11:46:05;;;;;;;1.40;0.90;;;21.30;55.50;;;;;;5035630;28;20524;-71
2022/03/25 11:48:42;;;;;;;1.60;1.20;;;21.10;56.10;;;;;;5057512;28;20553;-72
2022/03/25 11:51:28;;;;;;;1.43;0.90;;;21.10;55.20;;;;;;5045170;28;20458;-72
2022/03/25 11:53:57;;;;;;;1.50;1.10;;;21.20;55.60;;;;;;5045826;28;20492;-71
2022/03/25 11:56:25;;;;;;;2.27;1.23;;;21.40;57.00;;;;;;5045387;28;20461;-71
2022/03/25 11:59:02;;;;;;;1.50;1.10;;;21.30;55.90;;;;;;5041731;28;20462;-72
2022/03/25 12:01:31;;;;;;;1.50;1.07;;;21.50;57.20;;;;;;5041376;28;20470;-70
2022/03/25 12:03:59;;;;;;;1.50;1.13;;;21.50;56.00;;;;;;5046037;28;20483;-71
2022/03/25 12:06:27;;;;;;;1.50;0.90;;;21.50;54.90;;;;;;5052491;28;20992;-71
2022/03/25 12:09:01;;;;;;;1.40;0.90;;;21.40;55.10;;;;;;5049412;28;21062;-73
2022/03/25 12:11:51;;;;;;;1.47;0.90;;;21.10;55.00;;;;;;5046600;28;20485;-73
2022/03/25 12:14:19;;;;;;;1.50;1.00;;;21.10;55.80;;;;;;5047025;28;20929;-71
2022/03/25 12:17:12;;;;;;;1.70;1.57;;;21.00;56.00;;;;;;5046505;28;20466;-72
2022/03/25 12:19:55;;;;;;;1.43;0.90;;;21.10;56.50;;;;;;5031574;28;20531;-73
2022/03/25 12:22:41;;;;;;;1.40;0.90;;;21.20;55.20;;;;;;5045137;28;20937;-73
2022/03/25 12:25:18;;;;;;;1.43;0.90;;;20.90;54.90;;;;;;5039326;28;20859;-74
2022/03/25 12:27:46;;;;;;;1.47;0.90;;;21.00;56.00;;;;;;5045357;28;20531;-72
2022/03/25 12:30:14;;;;;;;1.50;0.90;;;21.10;55.10;;;;;;5049019;28;20591;-71
2022/03/25 12:32:41;;;;;;;1.50;0.90;;;21.20;54.90;;;;;;5041615;28;20629;-72
2022/03/25 12:35:13;;;;;;;1.47;0.90;;;21.20;54.90;;;;;;5050695;28;20568;-71
2022/03/25 12:37:57;;;;;;;1.47;0.90;;;21.40;56.00;;;;;;5045178;28;20553;-73
2022/03/25 12:40:28;;;;;;;1.43;0.90;;;21.30;54.50;;;;;;5044934;28;20853;-72
2022/03/25 12:42:58;;;;;;;1.43;0.90;;;21.20;54.60;;;;;;5046904;28;20490;-73
2022/03/25 12:45:31;;;;;;;1.47;0.90;;;21.30;53.40;;;;;;5043571;28;20896;-72
2022/03/25 12:48:07;;;;;;;1.47;0.90;;;21.20;53.60;;;;;;5039054;28;20465;-72
2022/03/25 12:50:34;;;;;;;1.40;0.90;;;21.10;53.00;;;;;;5044764;28;20541;-72
2022/03/25 12:53:02;;;;;;;1.40;0.90;;;20.90;52.80;;;;;;5044537;28;20601;-72
2022/03/25 12:55:32;;;;;;;1.50;0.90;;;20.90;54.20;;;;;;5038276;28;21002;-72
2022/03/25 12:58:07;;;;;;;1.43;0.90;;;20.90;53.10;;;;;;5043272;28;20883;-72
2022/03/25 13:00:40;;;;;;;1.50;1.00;;;20.60;52.30;;;;;;5041748;28;20572;-71
2022/03/25 13:03:07;;;;;;;1.50;0.90;;;20.60;54.20;;;;;;5041426;28;20580;-71
2022/03/25 13:05:35;;;;;;;1.43;0.90;;;20.80;54.80;;;;;;5042641;28;20531;-71